Terminal Aerodrome Forecast
Issued by NWS

Home | Current Version | Previous Version | Text Only | Print | Product List | Glossary On
Versions: 1 2 3 4 5 6 7 8 9 10 11 12 13
719
FTUS43 KDLH 210805 AAA
TAFHYR
TAF AMD
KHYR 210805Z 2108/2206 00000KT P6SM SCT007
      TEMPO 2108/2109 BKN007
     FM210900 00000KT 6SM BR SCT005
      TEMPO 2110/2112 2SM BR BKN005
     FM211300 36004KT P6SM SCT015
     FM211500 01007KT P6SM SKC
     FM220100 00000KT P6SM SKC=

USA.gov is the U.S. government's official web portal to all federal, state and local government web resources and services.